Detall de PIREP

Printer-friendly versionPDF version

[2009/07/16 14:47:00]
Flight IATA:CT3114
Pilot Number:011
Company ICAO:CAT
Aircraft Type:F28/A
PAX:85
Departing Airport: LEBL
Destination Airport: LEVC
Alternate Airport:LEPA
Online: VATSIM
Route:LOTOS UM985 SOPET
Flight Level:FL280
No Slew and time accel
No pause
Crash detect
Detect pilot in Cockpit between each 30 and 45 minutes
14:47 Zero fuel Weight: 60236 Lbs, Fuel Weight: 8000 Lbs
14:47 VATSIM:LEBL 161430Z 18007KT 110V230 CAVOK 25/19 Q1018 NOSIG
14:47 VATSIM:LEVC 161430Z 12009KT 080V160 9999 FEW025 31/22 Q1017 NOSIG
14:49 Parking Brakes off
14:56 Take-off
14:56 Take off Weight: 67742 Lbs
14:56 Wind: 245 @ 007 Knots Heading: 244
14:56 POS N41 18 01 E002 05 19
14:56 Gear Up: 157 Knots
14:56 Flaps:2 at 157 Knots
14:56 Flaps:1 at 202 Knots
14:56 Flaps:0 at 212 Knots
15:09 TOC
15:09 Fuel Weight: 5682 Lb
15:11 Wind:151@021 Knots Heading: 227 Ground
Speed: 431 Knots Altitude 28123 ft
15:12 TOD
15:12 Fuel Weight: 5435 Lb
15:26 Wind:121@017 Knots Heading: 244 Ground Speed: 260 Knots Altitude 5000 ft
15:28 Flaps:2 at 226 Knots
15:28 Flaps:3 at 226 Knots
15:28 Flaps:4 at 219 Knots
15:28 Gear Down: 213 Knots
15:29 Flaps:5 at 143 Knots
15:35 TouchDown:Rate -88 ft/min Speed: 106 Knots
15:35 Flaps:0 at 50 Knots
15:35 VATSIM:LEVC 161500Z 12009KT 080V160 CAVOK 30/22 Q1017 NOSIG
15:35 Land
15:35 Wind:132@009 Knots
15:35 Heading: 117
15:35 Flight Duration: 00:39
15:35 Landing Weight: 64723 Lbs
15:35 POS N39 29 11 W000 28 27
15:39 Parking brakes on
15:39 Block to Block Duration: 00:50
15:39 Final Fuel: 4290 Lbls
15:39 Spent Fuel: 3710 Lbls
15:39 Flight Length: 46 NM
15:39 TOD Land Length: 22 NM

Exportar CSV

Powered by Drupal - Modified by Danger4k